Time;durP1;ratioP1;P1;durP2;ratioP2;P2;SDS_P1;SDS_P2;PMS_P1;PMS_P2;Temp;Humidity;BMP_temperature;BMP_pressure;BME280_temperature;BME280_humidity;BME280_pressure;Samples;Min_cycle;Max_cycle;Signal;HPM_P1;HPM_P2
2022/05/29 00:02:05;;;;;;;18.08;6.60;;;10.00;99.90;;;;;;5026487;28;20498;-91
2022/05/29 00:04:30;;;;;;;20.75;6.78;;;10.00;99.90;;;;;;5006664;28;20044;-91
2022/05/29 00:06:56;;;;;;;19.17;7.90;;;10.00;99.90;;;;;;5023384;28;20064;-91
2022/05/29 00:09:41;;;;;;;26.30;8.23;;;10.00;99.90;;;;;;5005139;28;20056;-92
2022/05/29 00:12:07;;;;;;;14.55;7.15;;;10.00;99.90;;;;;;5008324;28;20060;-92
2022/05/29 00:14:34;;;;;;;23.80;8.13;;;10.00;99.90;;;;;;5072511;28;20048;-92
2022/05/29 00:16:59;;;;;;;15.95;6.57;;;10.00;99.90;;;;;;5043216;28;20048;-92
2022/05/29 00:19:25;;;;;;;21.83;7.45;;;9.90;99.90;;;;;;5063419;28;20049;-92
2022/05/29 00:21:51;;;;;;;21.15;7.05;;;9.90;99.90;;;;;;5042161;28;20064;-94
2022/05/29 00:24:16;;;;;;;23.63;6.57;;;9.90;99.90;;;;;;5007795;28;20055;-93
2022/05/29 00:26:42;;;;;;;19.02;7.22;;;11.50;99.90;;;;;;5038561;28;20049;-93
2022/05/29 00:29:08;;;;;;;16.10;6.75;;;10.80;99.90;;;;;;5037879;28;20102;-92
2022/05/29 00:31:34;;;;;;;22.50;7.60;;;9.80;99.90;;;;;;5038384;28;20045;-92
2022/05/29 00:34:00;;;;;;;19.30;6.93;;;9.70;99.90;;;;;;5053750;28;20423;-93
2022/05/29 00:36:26;;;;;;;23.50;7.10;;;9.70;99.90;;;;;;5028299;28;20060;-89
2022/05/29 00:38:52;;;;;;;18.05;6.57;;;9.70;99.90;;;;;;5021945;28;20055;-91
2022/05/29 00:41:24;;;;;;;24.08;7.20;;;9.70;99.90;;;;;;5020833;28;20045;-92
2022/05/29 00:44:10;;;;;;;20.77;7.65;;;9.60;99.90;;;;;;5022266;28;20124;-92
2022/05/29 00:46:36;;;;;;;25.67;7.32;;;9.60;99.90;;;;;;5019988;28;20063;-93
2022/05/29 00:49:09;;;;;;;20.00;7.03;;;9.60;99.90;;;;;;5020944;28;20131;-93
2022/05/29 00:51:37;;;;;;;19.90;6.63;;;9.70;99.90;;;;;;5038378;28;20049;-93
2022/05/29 00:54:03;;;;;;;23.05;6.68;;;9.50;99.90;;;;;;5021884;28;20123;-92
2022/05/29 00:56:29;;;;;;;15.82;6.38;;;9.60;99.90;;;;;;5021203;28;20136;-92
2022/05/29 00:58:57;;;;;;;20.80;6.55;;;9.60;99.90;;;;;;5053929;28;20075;-93
2022/05/29 01:01:22;;;;;;;26.77;6.47;;;9.60;99.90;;;;;;5073370;28;20049;-93
2022/05/29 01:03:48;;;;;;;23.27;6.72;;;9.60;99.90;;;;;;5037203;28;20520;-92
2022/05/29 01:06:14;;;;;;;20.25;6.53;;;10.90;99.90;;;;;;5053796;28;20048;-93
2022/05/29 01:08:39;;;;;;;22.98;6.75;;;9.70;99.90;;;;;;5005357;28;20049;-93
2022/05/29 01:11:17;;;;;;;25.35;7.93;;;9.70;99.90;;;;;;5044674;28;20052;-93
2022/05/29 01:14:25;;;;;;;21.15;6.45;;;9.60;99.90;;;;;;5028962;28;20110;-94
2022/05/29 01:17:03;;;;;;;19.92;7.00;;;10.80;99.90;;;;;;4986704;28;20064;-92
2022/05/29 01:20:07;;;;;;;16.17;5.50;;;9.60;99.90;;;;;;5034891;28;20049;-93
2022/05/29 01:22:51;;;;;;;35.00;6.60;;;9.60;99.90;;;;;;5048062;28;20048;-93
2022/05/29 01:25:39;;;;;;;25.95;6.78;;;9.60;99.90;;;;;;5058101;28;20384;-93
2022/05/29 01:28:16;;;;;;;26.33;6.68;;;9.60;99.90;;;;;;5048771;28;20057;-92
2022/05/29 01:30:57;;;;;;;17.52;6.07;;;9.60;99.90;;;;;;5044384;28;20124;-93
2022/05/29 01:33:29;;;;;;;21.77;6.43;;;9.50;99.90;;;;;;5026232;28;20088;-94
2022/05/29 01:36:00;;;;;;;19.63;5.90;;;9.50;99.90;;;;;;5038805;28;20044;-92
2022/05/29 01:38:54;;;;;;;18.70;5.43;;;9.50;99.90;;;;;;5038584;28;20049;-92
2022/05/29 01:41:28;;;;;;;18.48;5.30;;;9.40;99.90;;;;;;5038306;28;20067;-92
2022/05/29 01:44:24;;;;;;;19.85;5.78;;;9.50;99.90;;;;;;5030995;28;20045;-91
2022/05/29 01:46:55;;;;;;;20.17;5.82;;;9.50;99.90;;;;;;5030943;28;20045;-93
2022/05/29 01:49:29;;;;;;;18.60;6.15;;;9.70;99.90;;;;;;5032636;28;20053;-93
2022/05/29 01:52:01;;;;;;;24.10;6.38;;;9.40;99.90;;;;;;5048303;28;20080;-93
2022/05/29 01:54:43;;;;;;;19.33;5.90;;;9.40;99.90;;;;;;5045959;28;20135;-94
2022/05/29 01:57:15;;;;;;;17.48;5.65;;;9.40;99.90;;;;;;5029674;28;20124;-93
2022/05/29 02:00:06;;;;;;;16.75;6.40;;;10.80;99.90;;;;;;5045728;28;20073;-91
2022/05/29 02:02:37;;;;;;;22.75;5.40;;;9.40;99.90;;;;;;5024330;28;20049;-91
2022/05/29 02:05:08;;;;;;;15.68;5.50;;;9.50;99.90;;;;;;5020502;28;20053;-92
2022/05/29 02:07:49;;;;;;;19.70;5.78;;;9.50;99.90;;;;;;5021229;28;20060;-91
2022/05/29 02:10:37;;;;;;;18.75;5.72;;;9.50;99.90;;;;;;5007067;28;20049;-92
2022/05/29 02:13:10;;;;;;;16.60;5.57;;;9.40;99.90;;;;;;5027637;28;20073;-92
2022/05/29 02:15:43;;;;;;;19.98;5.60;;;9.40;99.90;;;;;;5045663;28;20132;-94
2022/05/29 02:18:31;;;;;;;23.63;6.40;;;9.40;99.90;;;;;;5028359;28;20059;-92
2022/05/29 02:20:58;;;;;;;23.45;6.47;;;9.40;99.90;;;;;;5044146;28;20061;-91
2022/05/29 02:23:30;;;;;;;18.85;6.22;;;9.40;99.90;;;;;;5009387;28;20052;-92
2022/05/29 02:25:56;;;;;;;17.30;6.15;;;9.40;99.90;;;;;;5011998;28;20098;-94
2022/05/29 02:28:26;;;;;;;20.75;5.80;;;10.30;99.90;;;;;;5029892;28;20140;-92
2022/05/29 02:31:10;;;;;;;19.23;5.88;;;9.60;99.90;;;;;;5026536;28;20052;-92
2022/05/29 02:33:42;;;;;;;19.58;6.55;;;9.30;99.90;;;;;;5026799;28;20517;-93
2022/05/29 02:36:24;;;;;;;20.42;6.35;;;9.40;99.90;;;;;;5007197;28;20048;-92
2022/05/29 02:39:20;;;;;;;15.75;6.38;;;9.40;99.90;;;;;;5025139;28;20049;-92
2022/05/29 02:42:12;;;;;;;20.25;6.50;;;9.40;99.90;;;;;;5035099;28;20074;-92
2022/05/29 02:44:40;;;;;;;20.67;6.53;;;9.40;99.90;;;;;;5067863;28;20068;-92
2022/05/29 02:47:23;;;;;;;22.65;6.18;;;9.30;99.90;;;;;;5056526;28;20127;-92
2022/05/29 02:49:59;;;;;;;23.38;6.30;;;9.30;99.90;;;;;;5017300;28;20056;-92
2022/05/29 02:52:25;;;;;;;23.65;6.45;;;9.40;99.90;;;;;;5030542;28;20045;-93
2022/05/29 02:54:51;;;;;;;22.00;6.65;;;9.40;99.90;;;;;;5045958;28;20109;-92
2022/05/29 02:57:17;;;;;;;21.20;6.43;;;9.40;99.90;;;;;;5031391;28;20154;-92
2022/05/29 02:59:52;;;;;;;24.30;7.15;;;9.30;99.90;;;;;;5064076;28;20167;-92
2022/05/29 03:02:30;;;;;;;25.05;7.20;;;9.30;99.90;;;;;;5033811;28;20049;-94
2022/05/29 03:05:01;;;;;;;22.48;6.75;;;9.30;99.90;;;;;;5048474;28;20040;-93
2022/05/29 03:07:45;;;;;;;26.27;7.68;;;9.30;99.90;;;;;;5031725;28;20075;-93
2022/05/29 03:10:17;;;;;;;26.17;7.75;;;9.30;99.90;;;;;;5046752;28;20043;-95
2022/05/29 03:12:44;;;;;;;17.02;6.63;;;9.40;99.90;;;;;;5046477;28;20059;-95
2022/05/29 03:15:37;;;;;;;23.55;7.55;;;9.40;99.90;;;;;;5050942;28;20045;-93
2022/05/29 03:18:09;;;;;;;23.52;7.43;;;9.40;99.90;;;;;;5049232;28;20055;-94
2022/05/29 03:20:41;;;;;;;20.27;7.30;;;9.40;99.90;;;;;;5039822;28;20049;-93
2022/05/29 03:23:27;;;;;;;25.88;7.80;;;9.40;99.90;;;;;;5038968;28;20040;-95
2022/05/29 03:25:56;;;;;;;22.77;7.35;;;9.40;99.90;;;;;;5041714;28;20116;-95
2022/05/29 03:28:22;;;;;;;18.65;6.60;;;9.80;99.90;;;;;;5030336;28;20091;-96
2022/05/29 03:30:48;;;;;;;27.30;7.70;;;9.40;99.90;;;;;;5060812;28;20415;-95
2022/05/29 03:33:14;;;;;;;24.48;7.05;;;9.40;99.90;;;;;;5041167;28;20065;-93
2022/05/29 03:35:52;;;;;;;23.67;8.07;;;9.50;99.90;;;;;;5025755;28;20396;-95
2022/05/29 03:38:18;;;;;;;24.38;7.65;;;9.50;99.90;;;;;;5031302;28;20057;-91
2022/05/29 03:40:44;;;;;;;25.42;7.78;;;9.50;99.90;;;;;;5047405;28;20060;-94
2022/05/29 03:43:09;;;;;;;28.25;7.88;;;9.50;99.90;;;;;;5043917;28;20041;-94
2022/05/29 03:45:35;;;;;;;20.13;6.65;;;9.50;99.90;;;;;;5028764;28;20087;-94
2022/05/29 03:48:02;;;;;;;19.65;7.95;;;9.50;99.90;;;;;;5025288;28;20051;-94
2022/05/29 03:50:27;;;;;;;23.05;7.10;;;9.50;99.90;;;;;;5060501;28;20400;-96
2022/05/29 03:52:53;;;;;;;20.33;6.28;;;10.40;99.90;;;;;;5042280;28;20051;-94
2022/05/29 03:55:24;;;;;;;21.23;6.15;;;9.50;99.90;;;;;;5045594;28;20053;-94
2022/05/29 03:57:50;;;;;;;18.10;6.47;;;9.00;99.90;;;;;;5049061;28;20045;-92
2022/05/29 04:00:16;;;;;;;18.00;5.30;;;9.60;99.90;;;;;;5088912;22;20064;-93
2022/05/29 04:02:42;;;;;;;16.98;5.47;;;9.60;99.90;;;;;;5059509;28;20064;-93
2022/05/29 04:05:09;;;;;;;14.23;4.57;;;9.60;99.90;;;;;;5043803;28;20125;-95
2022/05/29 04:13:02;;;;;;;13.93;4.72;;;9.60;99.90;;;;;;5055099;28;20073;-95
2022/05/29 04:15:28;;;;;;;17.55;4.88;;;9.60;99.90;;;;;;5028862;28;20178;-94
2022/05/29 04:17:54;;;;;;;13.30;4.05;;;9.60;99.90;;;;;;5039501;28;20052;-95
2022/05/29 04:20:19;;;;;;;18.50;4.53;;;9.50;99.90;;;;;;5062663;28;20374;-93
2022/05/29 04:22:45;;;;;;;16.40;4.15;;;9.60;99.90;;;;;;5034643;28;20507;-95
2022/05/29 04:25:11;;;;;;;16.30;5.00;;;9.60;99.90;;;;;;5060769;28;20104;-93
2022/05/29 04:27:36;;;;;;;19.67;4.57;;;9.60;99.90;;;;;;5065161;28;20044;-95
2022/05/29 04:30:03;;;;;;;15.85;4.40;;;9.60;99.90;;;;;;5049584;28;20120;-95
2022/05/29 04:35:13;;;;;;;20.58;5.40;;;9.60;99.90;;;;;;5065802;28;20044;-94
2022/05/29 04:37:38;;;;;;;18.25;4.47;;;9.70;99.90;;;;;;5042529;28;20052;-95
2022/05/29 04:40:05;;;;;;;24.70;5.93;;;9.70;99.90;;;;;;5037703;28;20056;-95
2022/05/29 04:42:30;;;;;;;17.38;5.10;;;9.70;99.90;;;;;;5039169;28;20045;-95
2022/05/29 04:44:56;;;;;;;16.42;5.07;;;9.70;99.90;;;;;;5036520;28;20059;-94
2022/05/29 04:47:22;;;;;;;18.95;5.10;;;9.80;99.90;;;;;;5058035;28;20401;-95
2022/05/29 04:49:47;;;;;;;15.77;4.70;;;9.80;99.90;;;;;;5033658;28;20050;-95
2022/05/29 04:52:13;;;;;;;16.85;4.32;;;10.10;99.90;;;;;;5065600;28;20041;-89
2022/05/29 04:54:39;;;;;;;20.83;5.45;;;9.90;99.90;;;;;;5045481;28;20049;-95
2022/05/29 04:57:10;;;;;;;18.25;5.18;;;9.90;99.90;;;;;;5300719;22;20017;-93
2022/05/29 04:59:36;;;;;;;14.20;4.80;;;10.10;99.90;;;;;;5038486;23;20101;-94
2022/05/29 05:04:40;;;;;;;22.35;5.63;;;9.90;99.90;;;;;;5165949;23;19951;-91
2022/05/29 05:07:06;;;;;;;18.65;4.15;;;9.40;99.90;;;;;;5011464;28;20050;-92
2022/05/29 05:09:34;;;;;;;19.90;3.90;;;9.90;99.90;;;;;;5021424;28;20400;-92
2022/05/29 05:12:00;;;;;;;18.20;3.60;;;9.50;99.90;;;;;;5046922;28;20057;-94
2022/05/29 05:14:26;;;;;;;20.55;3.75;;;9.40;99.90;;;;;;5029249;28;20117;-93
2022/05/29 05:16:56;;;;;;;15.73;3.70;;;9.80;99.90;;;;;;5013027;28;20057;-93
2022/05/29 05:19:22;;;;;;;17.92;3.55;;;9.90;99.90;;;;;;5044451;28;20061;-92
2022/05/29 05:21:48;;;;;;;11.95;3.67;;;9.80;99.90;;;;;;5050096;28;20064;-92
2022/05/29 05:24:14;;;;;;;18.33;5.25;;;10.70;99.90;;;;;;5065870;28;20126;-94
2022/05/29 05:26:41;;;;;;;17.00;3.70;;;9.80;99.90;;;;;;5026404;28;20049;-93
2022/05/29 05:29:06;;;;;;;10.40;3.00;;;9.90;99.90;;;;;;5048709;28;20057;-94
2022/05/29 05:31:32;;;;;;;12.95;3.40;;;9.90;99.90;;;;;;5037869;28;20104;-93
2022/05/29 05:33:59;;;;;;;19.65;3.70;;;10.00;99.90;;;;;;5036633;28;20170;-96
2022/05/29 05:36:25;;;;;;;14.52;3.72;;;10.10;99.90;;;;;;5036421;28;20077;-95
2022/05/29 05:38:51;;;;;;;19.15;3.70;;;10.20;99.90;;;;;;5050016;28;20080;-92
2022/05/29 05:41:17;;;;;;;18.13;3.65;;;10.10;99.90;;;;;;5051220;28;20571;-93
2022/05/29 05:43:42;;;;;;;17.30;3.28;;;10.20;99.90;;;;;;5024215;28;20092;-90
2022/05/29 05:46:14;;;;;;;15.43;3.65;;;10.30;99.90;;;;;;5063359;28;20040;-93
2022/05/29 05:48:40;;;;;;;17.88;3.78;;;10.40;99.90;;;;;;5031202;28;20067;-93
2022/05/29 05:51:06;;;;;;;18.30;3.72;;;10.40;99.90;;;;;;5044118;28;20068;-92
2022/05/29 05:53:32;;;;;;;12.70;3.75;;;10.50;99.90;;;;;;5036710;28;20493;-93
2022/05/29 05:55:58;;;;;;;20.50;4.38;;;10.50;99.90;;;;;;5057808;28;20113;-92
2022/05/29 05:58:23;;;;;;;13.13;3.60;;;10.50;99.90;;;;;;5056515;28;20135;-94
2022/05/29 06:00:49;;;;;;;15.23;3.35;;;10.50;99.90;;;;;;5030380;28;20049;-93
2022/05/29 06:03:15;;;;;;;15.68;3.20;;;10.40;99.90;;;;;;5052729;28;20064;-92
2022/05/29 06:05:41;;;;;;;16.45;3.50;;;10.40;99.90;;;;;;5051509;28;20037;-91
2022/05/29 06:08:07;;;;;;;21.70;3.90;;;10.30;99.90;;;;;;5018908;28;20040;-95
2022/05/29 06:10:32;;;;;;;20.95;3.35;;;10.30;99.90;;;;;;5058571;28;20088;-92
2022/05/29 06:13:02;;;;;;;14.82;3.90;;;10.30;99.90;;;;;;5039213;28;20048;-92
2022/05/29 06:15:28;;;;;;;15.18;3.67;;;10.20;99.90;;;;;;5051670;28;20099;-89
2022/05/29 06:17:54;;;;;;;23.70;5.68;;;10.20;99.90;;;;;;5039475;28;20029;-91
2022/05/29 06:20:19;;;;;;;17.20;5.97;;;10.10;99.90;;;;;;5053544;28;20079;-90
2022/05/29 06:22:45;;;;;;;17.58;5.03;;;10.10;99.90;;;;;;5058389;28;20100;-92
2022/05/29 06:25:11;;;;;;;17.58;4.80;;;10.10;99.90;;;;;;5058466;28;20106;-95
2022/05/29 06:27:40;;;;;;;16.27;5.85;;;10.20;99.90;;;;;;5057528;28;20057;-95
2022/05/29 06:30:08;;;;;;;23.75;7.13;;;10.20;99.90;;;;;;5031201;28;20123;-94
2022/05/29 06:32:34;;;;;;;20.92;4.85;;;10.20;99.90;;;;;;5042121;28;20385;-94
2022/05/29 06:35:00;;;;;;;25.73;7.70;;;10.30;99.90;;;;;;5063703;28;20045;-92
2022/05/29 06:37:26;;;;;;;19.65;5.30;;;10.40;99.90;;;;;;5046306;28;20048;-94
2022/05/29 06:39:52;;;;;;;16.80;4.50;;;10.50;99.90;;;;;;5053688;28;20048;-92
2022/05/29 06:42:17;;;;;;;18.42;4.18;;;10.60;99.90;;;;;;5045924;28;20540;-91
2022/05/29 06:44:43;;;;;;;17.58;4.25;;;10.60;99.90;;;;;;5063744;28;20064;-92
2022/05/29 06:47:09;;;;;;;15.38;3.38;;;10.60;99.90;;;;;;5059276;28;20064;-93
2022/05/29 06:49:35;;;;;;;16.92;3.25;;;10.70;99.90;;;;;;5055242;28;20044;-93
2022/05/29 06:52:07;;;;;;;16.13;4.38;;;10.70;99.90;;;;;;5025029;28;20190;-93
2022/05/29 06:54:33;;;;;;;14.52;3.38;;;10.70;99.90;;;;;;5028706;28;20073;-93
2022/05/29 06:56:59;;;;;;;16.70;3.65;;;10.80;99.90;;;;;;5007708;28;20485;-94
2022/05/29 06:59:25;;;;;;;18.50;4.30;;;10.80;99.90;;;;;;5053230;28;20033;-91
2022/05/29 07:07:19;;;;;;;16.90;3.20;;;10.90;99.90;;;;;;5044580;28;20049;-93
2022/05/29 07:09:44;;;;;;;10.63;3.10;;;10.80;99.90;;;;;;5061292;28;20052;-94
2022/05/29 07:12:17;;;;;;;18.52;3.33;;;10.90;99.90;;;;;;5056102;28;20051;-93
2022/05/29 07:14:51;;;;;;;14.60;4.70;;;11.00;99.90;;;;;;5024164;28;20120;-94
2022/05/29 07:17:18;;;;;;;13.80;3.53;;;11.00;99.90;;;;;;5022585;28;20084;-93
2022/05/29 07:19:44;;;;;;;16.38;3.53;;;11.00;99.90;;;;;;5036633;28;20505;-92
2022/05/29 07:22:11;;;;;;;15.77;3.35;;;11.00;99.90;;;;;;5055064;28;20071;-91
2022/05/29 07:24:38;;;;;;;16.70;3.60;;;11.10;99.90;;;;;;5035561;28;20045;-93
2022/05/29 07:27:04;;;;;;;11.90;3.33;;;11.10;99.90;;;;;;5019631;28;20489;-94
2022/05/29 07:29:30;;;;;;;13.75;3.00;;;11.10;99.90;;;;;;5052353;28;20103;-92
2022/05/29 07:31:56;;;;;;;11.35;2.85;;;11.20;99.90;;;;;;5032901;28;20057;-93
2022/05/29 07:34:23;;;;;;;10.07;2.63;;;11.10;99.90;;;;;;5016452;28;20057;-92
2022/05/29 07:36:51;;;;;;;16.67;3.17;;;11.20;99.90;;;;;;5034492;28;20076;-90
2022/05/29 07:39:17;;;;;;;13.65;2.78;;;11.30;99.90;;;;;;5033728;28;20489;-93
2022/05/29 07:44:26;;;;;;;8.70;2.08;;;11.10;99.90;;;;;;5037828;28;20552;-91
2022/05/29 07:46:52;;;;;;;13.55;2.85;;;11.40;99.90;;;;;;5031114;28;20128;-91
2022/05/29 07:49:18;;;;;;;13.10;3.13;;;11.40;99.90;;;;;;5049311;28;20083;-93
2022/05/29 07:51:44;;;;;;;8.10;2.25;;;11.40;99.90;;;;;;5015483;28;20038;-90
2022/05/29 07:54:09;;;;;;;13.27;2.75;;;11.40;99.90;;;;;;5030437;28;20387;-91
2022/05/29 07:56:35;;;;;;;12.70;2.55;;;11.40;99.90;;;;;;5029594;28;20087;-89
2022/05/29 07:59:00;;;;;;;10.88;2.30;;;11.40;99.90;;;;;;5010087;28;20049;-90
2022/05/29 08:01:26;;;;;;;9.45;2.10;;;11.30;99.90;;;;;;5022629;28;20049;-91
2022/05/29 08:03:52;;;;;;;8.73;2.67;;;11.20;99.90;;;;;;5043794;28;20049;-91
2022/05/29 08:06:17;;;;;;;9.27;2.25;;;11.20;99.90;;;;;;5041767;28;20055;-91
2022/05/29 08:08:43;;;;;;;12.20;3.80;;;11.40;99.90;;;;;;5042800;28;20056;-87
2022/05/29 08:11:09;;;;;;;11.77;2.40;;;11.40;99.90;;;;;;5037152;28;20171;-88
2022/05/29 08:13:35;;;;;;;9.18;2.17;;;11.30;99.90;;;;;;5047255;28;20049;-89
2022/05/29 08:16:05;;;;;;;7.10;2.08;;;11.50;99.90;;;;;;5048754;28;20044;-92
2022/05/29 08:18:30;;;;;;;10.95;1.95;;;11.50;99.90;;;;;;5048382;28;20056;-91
2022/05/29 08:20:56;;;;;;;11.10;2.40;;;11.70;99.90;;;;;;5016738;28;20037;-93
2022/05/29 08:23:22;;;;;;;9.25;2.10;;;11.80;99.90;;;;;;5047490;28;20049;-93
2022/05/29 08:31:16;;;;;;;7.22;1.80;;;12.40;99.90;;;;;;5019395;28;20553;-91
2022/05/29 08:33:43;;;;;;;7.10;1.50;;;12.40;99.90;;;;;;5030653;28;20128;-91
2022/05/29 08:36:14;;;;;;;6.97;1.52;;;12.50;99.90;;;;;;5045782;28;20046;-91
2022/05/29 08:38:42;;;;;;;13.10;2.85;;;12.50;99.90;;;;;;5048107;28;20080;-93
2022/05/29 08:41:18;;;;;;;6.32;1.45;;;12.50;99.90;;;;;;5031466;28;20676;-88
2022/05/29 08:44:01;;;;;;;7.07;1.50;;;12.40;99.90;;;;;;5016141;28;20126;-88
2022/05/29 08:46:41;;;;;;;6.40;1.65;;;12.20;99.90;;;;;;5049049;28;20041;-87
2022/05/29 08:49:08;;;;;;;6.65;1.30;;;12.10;99.90;;;;;;5046372;28;20048;-90
2022/05/29 08:51:41;;;;;;;5.50;1.33;;;12.20;99.90;;;;;;5029959;28;20053;-93
2022/05/29 08:54:26;;;;;;;7.53;1.33;;;12.00;99.90;;;;;;5032848;28;20052;-90
2022/05/29 08:57:07;;;;;;;5.25;1.20;;;12.00;99.90;;;;;;5029467;28;20053;-92
2022/05/29 08:59:47;;;;;;;5.28;1.45;;;12.20;99.90;;;;;;5032725;28;20045;-94
2022/05/29 09:02:46;;;;;;;4.32;1.42;;;11.90;99.90;;;;;;5014898;28;20056;-91
2022/05/29 09:05:36;;;;;;;5.93;1.50;;;11.80;99.90;;;;;;5063195;28;20017;-92
2022/05/29 09:08:09;;;;;;;7.53;1.70;;;11.60;99.90;;;;;;5033880;28;20053;-91
2022/05/29 09:10:39;;;;;;;5.45;1.60;;;11.70;99.90;;;;;;5045307;28;20088;-86
2022/05/29 09:13:09;;;;;;;8.68;1.58;;;11.50;99.90;;;;;;5028391;28;20544;-87
2022/05/29 09:15:40;;;;;;;7.13;1.63;;;11.30;99.90;;;;;;5029168;28;20029;-87
2022/05/29 09:18:12;;;;;;;7.45;2.00;;;11.50;99.90;;;;;;5043998;28;20056;-87
2022/05/29 09:21:05;;;;;;;9.25;2.17;;;11.60;99.90;;;;;;5017221;28;20044;-88
2022/05/29 09:23:34;;;;;;;7.35;1.60;;;11.80;99.90;;;;;;5013694;28;20088;-87
2022/05/29 09:26:00;;;;;;;7.03;1.67;;;11.80;99.90;;;;;;5040006;28;20127;-87
2022/05/29 09:28:35;;;;;;;10.55;1.80;;;11.80;99.90;;;;;;5035485;28;20132;-86
2022/05/29 09:31:25;;;;;;;10.43;2.47;;;11.50;99.90;;;;;;5027351;28;20061;-87
2022/05/29 09:33:51;;;;;;;8.98;1.90;;;11.40;99.90;;;;;;5032677;28;20131;-87
2022/05/29 09:36:32;;;;;;;5.82;2.00;;;11.50;99.90;;;;;;5049460;28;20461;-86
2022/05/29 09:39:02;;;;;;;10.98;2.50;;;11.80;99.90;;;;;;5050815;28;20047;-87
2022/05/29 09:41:29;;;;;;;7.47;1.90;;;12.10;99.90;;;;;;5035782;28;20052;-87
2022/05/29 09:44:12;;;;;;;8.57;2.00;;;12.30;99.90;;;;;;5049873;28;20102;-90
2022/05/29 09:46:45;;;;;;;6.43;1.80;;;12.60;99.90;;;;;;5045786;28;20041;-93
2022/05/29 09:49:43;;;;;;;5.93;1.17;;;12.60;99.90;;;;;;5011745;28;20045;-95
2022/05/29 09:52:13;;;;;;;7.80;1.65;;;13.00;99.90;;;;;;5034764;28;20155;-92
2022/05/29 09:54:44;;;;;;;8.75;1.63;;;13.20;99.90;;;;;;5023548;28;20076;-93
2022/05/29 09:57:20;;;;;;;6.72;1.50;;;13.10;99.90;;;;;;5037463;28;20049;-93
2022/05/29 09:59:46;;;;;;;5.45;1.25;;;13.20;99.90;;;;;;5011193;28;20518;-92
2022/05/29 10:02:24;;;;;;;7.45;1.55;;;13.80;99.90;;;;;;5017515;28;20045;-92
2022/05/29 10:04:51;;;;;;;7.03;1.88;;;13.40;99.90;;;;;;5021253;28;20386;-93
2022/05/29 10:07:41;;;;;;;2.95;1.10;;;13.30;99.90;;;;;;5033691;28;20061;-93
2022/05/29 10:10:07;;;;;;;6.20;1.40;;;13.10;99.90;;;;;;5030573;28;20049;-91
2022/05/29 10:12:42;;;;;;;7.82;1.60;;;12.70;99.90;;;;;;5049982;28;20052;-91
2022/05/29 10:15:33;;;;;;;6.93;1.60;;;12.90;99.90;;;;;;5017326;28;20053;-91
2022/05/29 10:18:01;;;;;;;7.53;1.67;;;12.70;99.90;;;;;;5026289;28;20258;-91
2022/05/29 10:20:36;;;;;;;9.93;1.83;;;12.20;99.90;;;;;;5034668;28;20059;-92
2022/05/29 10:23:03;;;;;;;9.98;2.15;;;12.20;99.90;;;;;;5030254;28;20032;-89
2022/05/29 10:25:40;;;;;;;9.15;1.55;;;12.20;99.90;;;;;;5030144;28;20186;-92
2022/05/29 10:28:15;;;;;;;11.10;1.92;;;12.40;99.90;;;;;;5017425;28;20092;-91
2022/05/29 10:30:55;;;;;;;8.48;2.17;;;12.40;99.90;;;;;;5024554;28;20057;-90
2022/05/29 10:33:22;;;;;;;7.72;1.88;;;12.60;99.90;;;;;;5023645;28;20092;-90
2022/05/29 10:35:48;;;;;;;8.57;2.42;;;12.70;99.90;;;;;;5016454;28;20041;-89
2022/05/29 10:38:22;;;;;;;8.90;2.20;;;12.80;99.90;;;;;;5016762;28;20496;-92
2022/05/29 10:40:49;;;;;;;6.00;1.83;;;12.70;99.90;;;;;;5028673;28;20501;-91
2022/05/29 10:43:38;;;;;;;8.55;2.30;;;12.90;99.90;;;;;;5051775;28;20099;-93
2022/05/29 10:46:17;;;;;;;10.82;2.15;;;12.70;99.90;;;;;;5036799;28;20049;-92
2022/05/29 10:48:54;;;;;;;6.72;1.63;;;12.90;99.90;;;;;;5050987;28;20091;-91
2022/05/29 10:51:21;;;;;;;7.72;1.45;;;13.00;99.90;;;;;;5048438;28;20088;-91
2022/05/29 10:54:18;;;;;;;9.60;1.70;;;12.90;99.90;;;;;;5017043;28;20064;-93
2022/05/29 10:57:40;;;;;;;6.65;1.67;;;13.00;99.90;;;;;;5031637;28;20147;-93
2022/05/29 11:00:34;;;;;;;10.25;1.90;;;13.00;99.90;;;;;;4997898;28;20042;-92
2022/05/29 11:03:28;;;;;;;7.80;1.80;;;13.00;99.90;;;;;;4963124;28;20057;-90
2022/05/29 11:06:13;;;;;;;10.70;1.77;;;12.20;99.90;;;;;;5043694;28;20109;-90
2022/05/29 11:08:39;;;;;;;5.55;1.40;;;12.40;99.90;;;;;;5049160;28;20046;-91
2022/05/29 11:11:10;;;;;;;11.77;2.25;;;12.60;99.90;;;;;;5065154;28;20049;-92
2022/05/29 11:13:49;;;;;;;6.15;1.70;;;12.70;99.90;;;;;;5065063;28;20049;-92
2022/05/29 11:16:34;;;;;;;7.68;1.65;;;12.80;99.90;;;;;;5023076;28;20037;-90
2022/05/29 11:19:21;;;;;;;5.95;1.77;;;12.90;99.90;;;;;;5060232;28;20044;-90
2022/05/29 11:22:02;;;;;;;6.25;1.45;;;13.00;99.90;;;;;;5044692;28;20070;-90
2022/05/29 11:24:58;;;;;;;5.57;1.55;;;13.20;99.90;;;;;;5056329;28;20688;-90
2022/05/29 11:27:42;;;;;;;5.97;1.80;;;13.50;99.90;;;;;;5041616;28;20056;-89
2022/05/29 11:30:17;;;;;;;9.10;1.70;;;13.30;99.90;;;;;;5059107;28;20104;-90
2022/05/29 11:33:15;;;;;;;5.57;1.30;;;13.30;99.90;;;;;;5037482;28;20131;-91
2022/05/29 11:36:19;;;;;;;7.82;1.50;;;13.40;99.90;;;;;;5030043;28;20053;-91
2022/05/29 11:38:59;;;;;;;3.22;1.27;;;12.90;99.90;;;;;;5050508;28;20064;-91
2022/05/29 11:42:03;;;;;;;4.07;1.40;;;13.00;99.90;;;;;;5034340;28;20126;-90
2022/05/29 11:44:37;;;;;;;6.93;2.08;;;12.60;99.90;;;;;;5032579;28;20481;-90
2022/05/29 11:53:24;;;;;;;7.15;1.42;;;12.70;99.90;;;;;;5025336;28;20053;-91
2022/05/29 11:55:50;;;;;;;6.38;1.95;;;12.80;99.90;;;;;;5052371;28;20052;-87
2022/05/29 11:58:40;;;;;;;6.60;1.55;;;12.90;99.90;;;;;;5024934;28;20060;-92
2022/05/29 12:01:11;;;;;;;7.13;1.50;;;12.70;99.90;;;;;;5041366;28;20049;-90
2022/05/29 12:03:49;;;;;;;9.18;1.80;;;12.90;99.90;;;;;;5024413;28;20072;-90
2022/05/29 12:06:27;;;;;;;8.20;1.80;;;13.20;99.90;;;;;;5027851;28;20063;-91
2022/05/29 12:09:14;;;;;;;8.52;1.70;;;13.30;99.90;;;;;;5044226;28;20101;-91
2022/05/29 12:12:03;;;;;;;6.40;1.70;;;13.60;99.90;;;;;;5060119;28;20060;-92
2022/05/29 12:14:34;;;;;;;5.28;1.63;;;13.60;99.90;;;;;;5047036;28;20056;-91
2022/05/29 12:17:05;;;;;;;6.90;1.67;;;14.70;99.90;;;;;;5041750;28;20017;-90
2022/05/29 12:19:35;;;;;;;6.55;1.75;;;14.60;99.90;;;;;;5024993;28;20049;-91
2022/05/29 12:22:13;;;;;;;10.55;2.03;;;14.60;99.90;;;;;;5025521;28;20052;-90
2022/05/29 12:24:43;;;;;;;8.20;1.73;;;14.60;99.90;;;;;;5023754;28;20055;-89
2022/05/29 12:27:23;;;;;;;6.38;1.73;;;14.20;99.90;;;;;;5022143;28;20049;-89
2022/05/29 12:29:53;;;;;;;8.52;2.00;;;14.00;99.90;;;;;;5044841;28;20045;-91
2022/05/29 12:32:32;;;;;;;6.38;1.90;;;13.80;99.90;;;;;;5028977;28;20068;-91
2022/05/29 12:35:04;;;;;;;10.60;2.05;;;13.60;99.90;;;;;;5039605;28;20573;-90
2022/05/29 12:37:34;;;;;;;6.43;1.70;;;13.30;99.90;;;;;;5022791;28;20544;-93
2022/05/29 12:40:18;;;;;;;13.30;2.45;;;13.20;99.90;;;;;;5027572;28;20136;-93
2022/05/29 12:42:50;;;;;;;11.30;2.55;;;13.00;99.90;;;;;;5042079;28;20052;-92
2022/05/29 12:45:31;;;;;;;8.98;2.80;;;12.70;99.90;;;;;;5048502;28;20051;-89
2022/05/29 12:48:06;;;;;;;9.93;2.28;;;12.80;99.90;;;;;;5031591;28;20056;-89
2022/05/29 12:50:46;;;;;;;14.70;2.63;;;12.70;99.90;;;;;;5033812;28;20045;-95
2022/05/29 12:53:19;;;;;;;6.95;1.85;;;12.30;99.90;;;;;;5025191;28;20053;-92
2022/05/29 12:55:48;;;;;;;9.65;1.88;;;12.10;99.90;;;;;;5014122;28;20045;-96
2022/05/29 12:58:47;;;;;;;7.85;1.80;;;12.50;99.90;;;;;;5024693;28;20059;-93
2022/05/29 13:01:57;;;;;;;8.07;1.77;;;12.10;99.90;;;;;;5033020;28;20516;-94
2022/05/29 13:04:40;;;;;;;12.68;1.98;;;12.10;99.90;;;;;;5022999;28;20057;-94
2022/05/29 13:07:14;;;;;;;9.40;2.28;;;12.50;99.90;;;;;;5030836;28;20389;-92
2022/05/29 13:10:03;;;;;;;;;;;12.10;99.90;;;;;;5018797;28;20456;-92
2022/05/29 13:12:40;;;;;;;7.97;1.98;;;12.30;99.90;;;;;;5018074;28;20356;-92
2022/05/29 13:15:10;;;;;;;7.60;1.95;;;12.50;99.90;;;;;;5021321;28;20069;-93
2022/05/29 13:17:45;;;;;;;14.57;3.85;;;12.60;99.90;;;;;;5015450;28;20390;-94
2022/05/29 13:20:19;;;;;;;6.65;1.95;;;12.80;99.90;;;;;;5019845;28;20045;-93
2022/05/29 13:22:59;;;;;;;9.75;1.95;;;11.60;99.90;;;;;;5016209;28;20133;-93
2022/05/29 13:25:37;;;;;;;12.48;1.92;;;12.90;99.90;;;;;;4995919;28;20049;-90
2022/05/29 13:28:26;;;;;;;7.25;1.73;;;13.00;99.90;;;;;;5029919;28;20053;-93
2022/05/29 13:31:20;;;;;;;10.07;1.75;;;13.20;99.90;;;;;;5017299;28;20373;-94
2022/05/29 13:33:53;;;;;;;6.60;1.42;;;12.80;99.90;;;;;;5003807;28;20053;-95
2022/05/29 13:36:43;;;;;;;9.00;2.42;;;12.80;99.90;;;;;;5023022;28;20052;-94
2022/05/29 13:39:30;;;;;;;8.02;1.92;;;13.50;99.90;;;;;;5033724;28;20081;-93
2022/05/29 13:42:05;;;;;;;5.78;1.70;;;12.90;99.90;;;;;;5024422;28;20077;-95
2022/05/29 13:44:39;;;;;;;9.10;1.80;;;14.00;99.90;;;;;;5020254;28;20088;-94